createdAt,value
2023-05-05T00:01:35.620Z,7.03
2023-05-05T00:04:02.573Z,7.63
2023-05-05T00:06:29.303Z,8.38
2023-05-05T00:08:56.396Z,7.82
2023-05-05T00:11:23.188Z,8.52
2023-05-05T00:13:49.925Z,8.07
2023-05-05T00:16:16.590Z,8.65
2023-05-05T00:18:44.083Z,6.53
2023-05-05T00:21:10.786Z,7.68
2023-05-05T00:23:37.474Z,9.85
2023-05-05T00:26:04.145Z,14.68
2023-05-05T00:28:30.793Z,14.07
2023-05-05T00:30:57.584Z,8.93
2023-05-05T00:33:24.570Z,10.88
2023-05-05T00:35:51.727Z,11.48
2023-05-05T00:38:18.483Z,11.05
2023-05-05T00:40:45.154Z,9.32
2023-05-05T00:43:13.011Z,9.57
2023-05-05T00:45:42.849Z,9.35
2023-05-05T00:48:09.885Z,8.00
2023-05-05T00:50:37.488Z,10.77
2023-05-05T00:53:06.831Z,10.52
2023-05-05T00:55:35.094Z,9.10
2023-05-05T00:58:04.078Z,11.05
2023-05-05T01:00:31.515Z,8.30
2023-05-05T01:02:59.047Z,9.48
2023-05-05T01:05:28.008Z,8.13
2023-05-05T01:08:03.422Z,10.88
2023-05-05T01:10:46.988Z,11.02
2023-05-05T01:13:37.462Z,8.57
2023-05-05T01:16:15.468Z,9.13
2023-05-05T01:19:14.563Z,9.15
2023-05-05T01:21:49.586Z,13.00
2023-05-05T01:24:48.053Z,9.80
2023-05-05T01:27:34.241Z,9.37
2023-05-05T01:30:01.118Z,9.05
2023-05-05T01:32:31.743Z,8.18
2023-05-05T01:35:10.144Z,13.10
2023-05-05T01:37:48.786Z,9.75
2023-05-05T01:40:20.143Z,10.73
2023-05-05T01:42:48.571Z,10.05
2023-05-05T01:45:17.404Z,8.45
2023-05-05T01:47:45.544Z,11.43
2023-05-05T01:50:13.869Z,10.52
2023-05-05T01:52:42.624Z,10.55
2023-05-05T01:55:11.173Z,10.77
2023-05-05T01:57:41.312Z,10.97
2023-05-05T02:00:09.860Z,9.35
2023-05-05T02:02:39.877Z,12.68
2023-05-05T02:05:07.333Z,9.57
2023-05-05T02:07:35.867Z,11.20
2023-05-05T02:10:04.956Z,8.43
2023-05-05T02:12:32.452Z,11.38
2023-05-05T02:15:01.683Z,9.50
2023-05-05T02:17:30.092Z,9.60
2023-05-05T02:19:59.258Z,11.07
2023-05-05T02:22:25.946Z,9.00
2023-05-05T02:24:53.114Z,9.25
2023-05-05T02:27:21.867Z,8.77
2023-05-05T02:29:56.778Z,8.20
2023-05-05T02:32:39.836Z,12.07
2023-05-05T02:35:20.063Z,8.68
2023-05-05T02:38:09.798Z,9.35
2023-05-05T02:40:38.626Z,11.25
2023-05-05T02:43:08.526Z,8.80
2023-05-05T02:45:35.335Z,14.57
2023-05-05T02:48:04.214Z,11.98
2023-05-05T02:50:31.904Z,10.43
2023-05-05T02:53:00.325Z,10.57
2023-05-05T02:55:35.031Z,9.88
2023-05-05T02:58:06.652Z,9.57
2023-05-05T03:00:36.946Z,10.07
2023-05-05T03:03:06.945Z,12.93
2023-05-05T03:05:45.913Z,8.88
2023-05-05T03:08:30.232Z,13.18
2023-05-05T03:11:04.687Z,9.32
2023-05-05T03:13:32.601Z,12.75
2023-05-05T03:16:04.609Z,11.68
2023-05-05T03:18:32.060Z,9.50
2023-05-05T03:21:02.433Z,8.93
2023-05-05T03:23:29.131Z,12.73
2023-05-05T03:25:55.814Z,10.90
2023-05-05T03:28:22.463Z,11.18
2023-05-05T03:30:49.144Z,11.52
2023-05-05T03:33:16.090Z,12.18
2023-05-05T03:35:42.766Z,8.18
2023-05-05T03:38:09.434Z,10.85
2023-05-05T03:40:43.398Z,11.18
2023-05-05T03:43:11.430Z,9.70
2023-05-05T03:45:38.752Z,9.07
2023-05-05T03:48:06.186Z,10.20
2023-05-05T03:50:32.861Z,8.20
2023-05-05T03:52:59.483Z,11.65
2023-05-05T03:55:26.109Z,10.45
2023-05-05T03:57:52.768Z,9.90
2023-05-05T04:00:19.660Z,8.73
2023-05-05T04:02:46.456Z,11.70
2023-05-05T04:05:13.081Z,13.90
2023-05-05T04:07:39.707Z,8.95
2023-05-05T04:10:07.203Z,12.93
2023-05-05T04:12:34.099Z,11.15
2023-05-05T04:15:00.742Z,7.72
2023-05-05T04:17:27.381Z,8.48
2023-05-05T04:19:54.138Z,8.20
2023-05-05T04:22:20.788Z,9.88
2023-05-05T04:24:47.594Z,9.85
2023-05-05T04:27:14.159Z,10.13
2023-05-05T04:29:40.812Z,14.00
2023-05-05T04:32:07.397Z,10.60
2023-05-05T04:34:34.003Z,11.80
2023-05-05T04:37:00.686Z,9.18
2023-05-05T04:39:27.304Z,9.48
2023-05-05T04:41:53.857Z,8.55
2023-05-05T04:44:20.769Z,8.05
2023-05-05T04:46:47.403Z,9.18
2023-05-05T04:49:14.098Z,10.10
2023-05-05T04:51:43.801Z,10.88
2023-05-05T04:54:10.464Z,11.75
2023-05-05T04:56:37.204Z,13.68
2023-05-05T04:59:04.019Z,10.98
2023-05-05T05:01:31.751Z,13.30
2023-05-05T05:03:58.721Z,10.45
2023-05-05T05:06:25.524Z,13.13
2023-05-05T05:08:52.112Z,10.90
2023-05-05T05:11:18.704Z,11.05
2023-05-05T05:13:45.326Z,8.85
2023-05-05T05:16:12.035Z,11.68
2023-05-05T05:18:38.684Z,10.43
2023-05-05T05:21:05.617Z,14.32
2023-05-05T05:23:32.352Z,11.45
2023-05-05T05:25:58.998Z,12.88
2023-05-05T05:28:25.869Z,10.07
2023-05-05T05:30:52.755Z,9.68
2023-05-05T05:33:19.912Z,12.05
2023-05-05T05:35:46.449Z,11.43
2023-05-05T05:38:13.083Z,13.93
2023-05-05T05:40:39.750Z,15.30
2023-05-05T05:43:06.611Z,13.88
2023-05-05T05:45:33.215Z,10.95
2023-05-05T05:47:59.900Z,10.57
2023-05-05T05:50:28.603Z,14.48
2023-05-05T05:52:55.755Z,17.55
2023-05-05T05:55:22.447Z,14.48
2023-05-05T05:57:49.178Z,11.55
2023-05-05T06:00:16.117Z,12.57
2023-05-05T06:02:42.982Z,11.75
2023-05-05T06:05:10.571Z,13.05
2023-05-05T06:07:37.165Z,12.38
2023-05-05T06:10:18.631Z,10.10
2023-05-05T06:12:51.282Z,10.27
2023-05-05T06:15:17.942Z,12.02
2023-05-05T06:17:44.532Z,11.07
2023-05-05T06:20:11.700Z,16.33
2023-05-05T06:22:38.280Z,15.93
2023-05-05T06:25:05.222Z,10.35
2023-05-05T06:27:31.857Z,12.77
2023-05-05T06:29:58.482Z,12.82
2023-05-05T06:32:25.103Z,10.40
2023-05-05T06:34:51.723Z,12.63
2023-05-05T06:37:18.381Z,12.80
2023-05-05T06:39:45.054Z,11.60
2023-05-05T06:42:11.798Z,13.18
2023-05-05T06:44:38.472Z,13.48
2023-05-05T06:47:05.166Z,11.13
2023-05-05T06:49:31.835Z,11.55
2023-05-05T06:51:58.501Z,11.20
2023-05-05T06:54:25.187Z,10.63
2023-05-05T06:56:51.748Z,12.00
2023-05-05T06:59:18.525Z,10.88
2023-05-05T07:01:45.257Z,9.88
2023-05-05T07:04:12.144Z,8.18
2023-05-05T07:06:38.938Z,10.10
2023-05-05T07:09:06.054Z,10.20
2023-05-05T07:11:32.712Z,9.02
2023-05-05T07:13:59.346Z,9.45
2023-05-05T07:16:27.237Z,9.60
2023-05-05T07:18:53.948Z,9.93
2023-05-05T07:21:20.648Z,17.35
2023-05-05T07:23:47.850Z,12.32
2023-05-05T07:26:15.266Z,11.07
2023-05-05T07:28:43.209Z,12.25
2023-05-05T07:31:09.929Z,7.72
2023-05-05T07:33:36.641Z,9.75
2023-05-05T07:36:03.662Z,10.63
2023-05-05T07:38:30.356Z,7.03
2023-05-05T07:40:56.963Z,8.27
2023-05-05T07:43:23.595Z,12.30
2023-05-05T07:45:50.202Z,6.32
2023-05-05T07:48:16.955Z,7.40
2023-05-05T07:50:43.559Z,7.28
2023-05-05T07:53:14.365Z,6.78
2023-05-05T07:55:41.955Z,7.95
2023-05-05T07:58:10.847Z,4.97
2023-05-05T08:00:38.285Z,6.05
2023-05-05T08:03:05.234Z,7.93
2023-05-05T08:05:32.109Z,5.40
2023-05-05T08:07:58.906Z,9.20
2023-05-05T08:10:25.534Z,5.60
2023-05-05T08:12:52.487Z,9.40
2023-05-05T08:15:19.260Z,4.70
2023-05-05T08:17:50.155Z,7.32
2023-05-05T08:20:18.278Z,5.32
2023-05-05T08:22:45.678Z,5.97
2023-05-05T08:25:13.356Z,6.78
2023-05-05T08:27:41.420Z,5.28
2023-05-05T08:30:09.496Z,7.35
2023-05-05T08:32:36.226Z,5.07
2023-05-05T08:35:03.591Z,5.40
2023-05-05T08:37:30.626Z,6.65
2023-05-05T08:39:58.219Z,6.43
2023-05-05T08:42:36.049Z,10.18
2023-05-05T08:45:04.824Z,5.88
2023-05-05T08:47:32.239Z,8.50
2023-05-05T08:49:59.404Z,4.90
2023-05-05T08:52:31.546Z,5.28
2023-05-05T08:55:11.922Z,5.18
2023-05-05T08:57:51.699Z,4.72
2023-05-05T09:00:19.896Z,8.10
2023-05-05T09:02:47.273Z,7.70
2023-05-05T09:05:14.410Z,4.05
2023-05-05T09:07:44.247Z,7.75
2023-05-05T09:10:12.489Z,6.15
2023-05-05T09:12:40.693Z,4.25
2023-05-05T09:15:09.888Z,6.40
2023-05-05T09:20:04.957Z,8.55
2023-05-05T09:22:37.509Z,7.10
2023-05-05T09:25:09.995Z,4.05
2023-05-05T09:27:41.454Z,6.63
2023-05-05T09:30:09.996Z,5.05
2023-05-05T09:32:52.366Z,4.53
2023-05-05T09:35:20.287Z,6.03
2023-05-05T09:37:47.629Z,3.92
2023-05-05T09:40:17.836Z,5.88
2023-05-05T09:42:47.423Z,5.43
2023-05-05T09:45:20.195Z,5.60
2023-05-05T09:47:48.228Z,5.97
2023-05-05T09:50:18.845Z,7.82
2023-05-05T09:53:02.760Z,5.47
2023-05-05T09:55:31.514Z,5.75
2023-05-05T09:58:16.893Z,6.78
2023-05-05T10:00:43.715Z,3.80
2023-05-05T10:03:10.663Z,5.32
2023-05-05T10:05:47.990Z,7.60
2023-05-05T10:08:14.586Z,6.25
2023-05-05T10:10:49.715Z,4.68
2023-05-05T10:13:19.417Z,4.32
2023-05-05T10:15:47.325Z,3.78
2023-05-05T10:18:15.165Z,12.68
2023-05-05T10:20:43.890Z,3.65
2023-05-05T10:23:14.589Z,4.60
2023-05-05T10:25:53.079Z,7.93
2023-05-05T10:28:31.442Z,4.03
2023-05-05T10:31:00.578Z,4.93
2023-05-05T10:36:02.584Z,6.90
2023-05-05T10:38:33.914Z,6.15
2023-05-05T10:41:02.263Z,3.88
2023-05-05T10:43:30.954Z,4.87
2023-05-05T10:45:59.120Z,7.63
2023-05-05T10:48:47.111Z,8.05
2023-05-05T10:51:49.307Z,6.18
2023-05-05T10:54:30.568Z,5.15
2023-05-05T10:57:01.361Z,4.43
2023-05-05T10:59:37.133Z,3.50
2023-05-05T11:02:28.238Z,5.03
2023-05-05T11:05:10.102Z,4.57
2023-05-05T11:07:37.935Z,6.05
2023-05-05T11:10:06.510Z,4.45
2023-05-05T11:12:54.058Z,7.60
2023-05-05T11:15:26.913Z,6.10
2023-05-05T11:17:54.688Z,7.30
2023-05-05T11:20:45.363Z,6.70
2023-05-05T11:23:12.977Z,6.93
2023-05-05T11:28:13.783Z,5.60
2023-05-05T11:33:26.448Z,8.25
2023-05-05T11:35:57.324Z,8.98
2023-05-05T11:38:37.558Z,6.40
2023-05-05T11:41:17.350Z,5.93
2023-05-05T11:43:44.228Z,5.25
2023-05-05T11:46:15.308Z,4.70
2023-05-05T11:48:49.083Z,6.97
2023-05-05T11:51:18.999Z,4.18
2023-05-05T11:53:47.727Z,6.10
2023-05-05T11:56:19.287Z,5.20
2023-05-05T11:59:04.920Z,6.95
2023-05-05T12:01:31.747Z,5.97
2023-05-05T12:03:58.701Z,4.13
2023-05-05T12:06:26.908Z,5.60
2023-05-05T12:08:53.912Z,6.65
2023-05-05T12:11:21.123Z,7.03
2023-05-05T12:13:47.813Z,7.45
2023-05-05T12:16:16.054Z,4.78
2023-05-05T12:18:43.292Z,4.13
2023-05-05T12:21:17.932Z,5.93
2023-05-05T12:23:44.859Z,5.60
2023-05-05T12:26:28.904Z,9.93
2023-05-05T12:28:59.420Z,4.78
2023-05-05T12:31:52.174Z,5.15
2023-05-05T12:34:19.307Z,6.57
2023-05-05T12:36:46.493Z,5.10
2023-05-05T12:39:13.311Z,10.43
2023-05-05T12:41:40.350Z,4.63
2023-05-05T12:44:07.223Z,5.03
2023-05-05T12:46:47.922Z,5.05
2023-05-05T12:49:15.040Z,6.35
2023-05-05T12:52:02.090Z,7.43
2023-05-05T12:54:31.894Z,5.60
2023-05-05T12:56:58.942Z,7.15
2023-05-05T12:59:25.648Z,5.20
2023-05-05T13:01:54.379Z,4.97
2023-05-05T13:04:23.216Z,5.05
2023-05-05T13:07:10.055Z,5.00
2023-05-05T13:09:37.223Z,4.82
2023-05-05T13:12:04.581Z,4.28
2023-05-05T13:14:36.386Z,6.03
2023-05-05T13:17:03.242Z,4.15
2023-05-05T13:19:30.507Z,6.93
2023-05-05T13:21:58.568Z,7.38
2023-05-05T13:24:38.043Z,11.38
2023-05-05T13:27:09.620Z,4.38
2023-05-05T13:29:36.439Z,7.00
2023-05-05T13:32:03.319Z,4.00
2023-05-05T13:34:30.199Z,8.93
2023-05-05T13:36:56.961Z,5.07
2023-05-05T13:39:23.775Z,7.10
2023-05-05T13:41:50.502Z,6.30
2023-05-05T13:44:17.165Z,8.70
2023-05-05T13:46:43.840Z,5.43
2023-05-05T13:49:11.182Z,5.60
2023-05-05T13:51:39.067Z,7.47
2023-05-05T13:54:06.860Z,7.60
2023-05-05T13:56:34.418Z,9.65
2023-05-05T13:59:01.280Z,6.45
2023-05-05T14:01:28.343Z,8.10
2023-05-05T14:03:57.145Z,5.93
2023-05-05T14:06:27.935Z,6.60
2023-05-05T14:08:54.676Z,6.15
2023-05-05T14:11:21.494Z,10.90
2023-05-05T14:13:48.224Z,14.95
2023-05-05T14:16:15.024Z,9.80
2023-05-05T14:18:41.752Z,10.88
2023-05-05T14:21:08.713Z,7.05
2023-05-05T14:23:35.489Z,9.50
2023-05-05T14:26:02.740Z,9.25
2023-05-05T14:28:29.566Z,6.57
2023-05-05T14:30:56.339Z,8.57
2023-05-05T14:33:23.122Z,7.55
2023-05-05T14:35:49.827Z,8.48
2023-05-05T14:38:16.509Z,6.82
2023-05-05T14:40:43.240Z,5.70
2023-05-05T14:43:09.906Z,10.02
2023-05-05T14:45:36.611Z,10.23
2023-05-05T14:48:03.476Z,7.65
2023-05-05T14:50:30.371Z,8.80
2023-05-05T14:52:57.096Z,8.48
2023-05-05T14:55:25.073Z,11.05
2023-05-05T14:57:52.102Z,6.75
2023-05-05T15:00:19.156Z,10.13
2023-05-05T15:02:48.174Z,10.15
2023-05-05T15:07:41.800Z,10.40
2023-05-05T15:10:08.914Z,9.82
2023-05-05T15:12:35.746Z,9.00
2023-05-05T15:15:02.567Z,7.65
2023-05-05T15:17:30.887Z,8.75
2023-05-05T15:19:57.957Z,9.50
2023-05-05T15:22:24.637Z,6.47
2023-05-05T15:24:51.298Z,5.13
2023-05-05T15:27:18.639Z,5.40
2023-05-05T15:29:45.398Z,5.47
2023-05-05T15:32:12.253Z,5.10
2023-05-05T15:34:38.977Z,7.72
2023-05-05T15:37:05.621Z,7.53
2023-05-05T15:39:32.265Z,6.00
2023-05-05T15:42:03.705Z,6.95
2023-05-05T15:44:31.286Z,6.70
2023-05-05T15:46:58.102Z,9.77
2023-05-05T15:49:25.017Z,9.30
2023-05-05T15:51:51.696Z,7.43
2023-05-05T15:54:18.395Z,9.48
2023-05-05T15:56:45.188Z,8.38
2023-05-05T15:59:11.846Z,8.95
2023-05-05T16:01:38.686Z,10.63
2023-05-05T16:04:05.571Z,7.20
2023-05-05T16:06:32.295Z,13.00
2023-05-05T16:08:58.925Z,15.18
2023-05-05T16:11:28.550Z,14.85
2023-05-05T16:13:55.323Z,9.43
2023-05-05T16:16:22.046Z,7.85
2023-05-05T16:18:48.838Z,9.77
2023-05-05T16:21:15.554Z,6.40
2023-05-05T16:23:42.279Z,7.25
2023-05-05T16:26:09.067Z,6.68
2023-05-05T16:28:35.811Z,6.22
2023-05-05T16:31:02.558Z,7.88
2023-05-05T16:33:29.594Z,7.65
2023-05-05T16:35:56.630Z,6.60
2023-05-05T16:38:23.299Z,7.45
2023-05-05T16:40:50.013Z,6.70
2023-05-05T16:43:16.743Z,5.45
2023-05-05T16:45:43.588Z,7.90
2023-05-05T16:48:10.538Z,6.38
2023-05-05T16:50:37.222Z,8.18
2023-05-05T16:53:03.930Z,6.47
2023-05-05T16:55:30.712Z,5.55
2023-05-05T16:57:57.412Z,5.60
2023-05-05T17:00:24.160Z,5.53
2023-05-05T17:02:51.023Z,8.50
2023-05-05T17:05:17.956Z,6.30
2023-05-05T17:07:44.925Z,5.70
2023-05-05T17:10:11.574Z,6.57
2023-05-05T17:12:38.314Z,5.85
2023-05-05T17:15:05.845Z,4.65
2023-05-05T17:17:32.519Z,5.43
2023-05-05T17:19:59.259Z,6.13
2023-05-05T17:22:26.153Z,4.65
2023-05-05T17:24:52.797Z,5.05
2023-05-05T17:27:19.493Z,4.53
2023-05-05T17:29:46.378Z,6.68
2023-05-05T17:32:13.047Z,4.68
2023-05-05T17:34:41.159Z,6.18
2023-05-05T17:37:09.105Z,6.00
2023-05-05T17:39:35.864Z,5.80
2023-05-05T17:42:02.663Z,6.90
2023-05-05T17:44:29.300Z,6.40
2023-05-05T17:46:55.893Z,8.95
2023-05-05T17:49:25.316Z,7.72
2023-05-05T17:51:52.082Z,7.65
2023-05-05T17:54:18.722Z,7.68
2023-05-05T17:56:45.444Z,11.35
2023-05-05T17:59:12.058Z,9.30
2023-05-05T18:01:38.863Z,8.60
2023-05-05T18:04:05.635Z,8.00
2023-05-05T18:06:32.419Z,7.72
2023-05-05T18:08:59.328Z,7.32
2023-05-05T18:11:28.847Z,10.43
2023-05-05T18:13:56.336Z,8.48
2023-05-05T18:16:23.003Z,6.93
2023-05-05T18:18:49.712Z,7.57
2023-05-05T18:21:16.529Z,7.95
2023-05-05T18:23:43.205Z,8.70
2023-05-05T18:26:09.847Z,10.32
2023-05-05T18:28:37.028Z,8.55
2023-05-05T18:31:03.767Z,8.75
2023-05-05T18:33:30.543Z,10.25
2023-05-05T18:35:57.816Z,14.23
2023-05-05T18:38:24.815Z,11.07
2023-05-05T18:40:51.559Z,12.18
2023-05-05T18:43:18.322Z,9.85
2023-05-05T18:45:45.349Z,10.32
2023-05-05T18:48:12.132Z,10.15
2023-05-05T18:50:39.192Z,14.65
2023-05-05T18:53:06.266Z,9.55
2023-05-05T18:55:32.957Z,11.00
2023-05-05T18:57:59.634Z,9.77
2023-05-05T19:00:26.403Z,12.77
2023-05-05T19:02:53.964Z,12.25
2023-05-05T19:05:20.945Z,10.52
2023-05-05T19:07:47.872Z,12.10
2023-05-05T19:10:14.571Z,9.68
2023-05-05T19:12:41.819Z,10.75
2023-05-05T19:15:09.213Z,10.35
2023-05-05T19:17:36.477Z,10.82
2023-05-05T19:20:03.339Z,9.48
2023-05-05T19:22:30.059Z,10.77
2023-05-05T19:24:56.871Z,11.00
2023-05-05T19:27:23.564Z,13.32
2023-05-05T19:29:52.503Z,9.93
2023-05-05T19:34:47.035Z,11.48
2023-05-05T19:37:13.675Z,9.77
2023-05-05T19:39:40.435Z,9.73
2023-05-05T19:42:07.466Z,10.70
2023-05-05T19:44:34.092Z,10.95
2023-05-05T19:47:00.767Z,10.73
2023-05-05T19:49:27.464Z,12.15
2023-05-05T19:51:54.388Z,13.48
2023-05-05T19:54:21.435Z,19.25
2023-05-05T19:56:48.106Z,17.23
2023-05-05T19:59:14.772Z,13.98
2023-05-05T20:01:41.639Z,11.15
2023-05-05T20:04:08.671Z,12.15
2023-05-05T20:06:36.358Z,11.95
2023-05-05T20:09:03.997Z,10.90
2023-05-05T20:11:31.226Z,11.10
2023-05-05T20:13:58.501Z,10.82
2023-05-05T20:16:25.540Z,11.75
2023-05-05T20:18:52.412Z,11.60
2023-05-05T20:21:19.116Z,13.00
2023-05-05T20:23:46.333Z,13.43
2023-05-05T20:26:13.598Z,11.57
2023-05-05T20:28:43.317Z,13.90
2023-05-05T20:31:12.112Z,11.10
2023-05-05T20:33:38.801Z,12.70
2023-05-05T20:36:05.791Z,12.50
2023-05-05T20:38:32.382Z,11.32
2023-05-05T20:40:59.595Z,12.38
2023-05-05T20:43:26.321Z,15.40
2023-05-05T20:45:53.126Z,11.52
2023-05-05T20:48:19.795Z,13.48
2023-05-05T20:50:46.452Z,10.02
2023-05-05T20:53:16.145Z,11.27
2023-05-05T20:55:42.816Z,11.18
2023-05-05T20:58:09.585Z,10.80
2023-05-05T21:00:36.317Z,11.40
2023-05-05T21:03:03.095Z,16.63
2023-05-05T21:05:31.695Z,22.98
2023-05-05T21:08:00.481Z,17.10
2023-05-05T21:10:28.851Z,17.08
2023-05-05T21:12:55.468Z,18.83
2023-05-05T21:15:22.092Z,17.75
2023-05-05T21:17:48.847Z,18.73
2023-05-05T21:20:16.476Z,18.25
2023-05-05T21:22:43.195Z,15.50
2023-05-05T21:25:18.647Z,15.35
2023-05-05T21:27:46.542Z,15.52
2023-05-05T21:30:13.695Z,16.40
2023-05-05T21:32:41.352Z,16.83
2023-05-05T21:35:09.248Z,15.73
2023-05-05T21:37:39.672Z,15.30
2023-05-05T21:40:10.999Z,18.25
2023-05-05T21:42:37.938Z,13.90
2023-05-05T21:45:05.074Z,15.02
2023-05-05T21:47:31.763Z,16.15
2023-05-05T21:49:59.119Z,16.20
2023-05-05T21:52:25.833Z,16.65
2023-05-05T21:54:52.458Z,15.63
2023-05-05T21:57:19.077Z,15.68
2023-05-05T21:59:45.819Z,16.38
2023-05-05T22:02:12.521Z,15.43
2023-05-05T22:04:39.249Z,14.43
2023-05-05T22:07:05.923Z,13.07
2023-05-05T22:09:32.554Z,15.45
2023-05-05T22:11:59.167Z,13.75
2023-05-05T22:14:25.885Z,13.77
2023-05-05T22:16:52.571Z,10.50
2023-05-05T22:19:19.140Z,10.35
2023-05-05T22:21:45.836Z,10.52
2023-05-05T22:24:12.504Z,10.48
2023-05-05T22:26:43.274Z,11.60
2023-05-05T22:29:11.225Z,10.60
2023-05-05T22:31:38.153Z,9.85
2023-05-05T22:34:04.959Z,9.80
2023-05-05T22:36:31.836Z,10.10
2023-05-05T22:38:58.650Z,9.20
2023-05-05T22:41:25.678Z,7.50
2023-05-05T22:43:52.323Z,7.00
2023-05-05T22:46:18.957Z,4.75
2023-05-05T22:48:46.121Z,6.03
2023-05-05T22:51:13.560Z,4.65
2023-05-05T22:53:40.242Z,8.68
2023-05-05T22:56:07.192Z,5.85
2023-05-05T22:58:33.851Z,4.00
2023-05-05T23:01:00.526Z,12.50
2023-05-05T23:03:27.169Z,6.88
2023-05-05T23:05:53.765Z,5.40
2023-05-05T23:08:20.562Z,5.07
2023-05-05T23:10:47.263Z,4.05
2023-05-05T23:13:13.885Z,3.65
2023-05-05T23:15:41.228Z,5.15
2023-05-05T23:18:08.055Z,5.57
2023-05-05T23:20:34.870Z,5.97
2023-05-05T23:23:01.452Z,6.30
2023-05-05T23:25:28.215Z,4.82
2023-05-05T23:27:54.788Z,2.35
2023-05-05T23:30:21.550Z,3.63
2023-05-05T23:32:48.189Z,2.85
2023-05-05T23:35:15.031Z,2.92
2023-05-05T23:37:41.638Z,2.22
2023-05-05T23:40:09.191Z,3.47
2023-05-05T23:42:35.767Z,4.50
2023-05-05T23:45:02.365Z,3.10
2023-05-05T23:47:28.983Z,3.55
2023-05-05T23:49:55.605Z,2.88
2023-05-05T23:52:22.624Z,4.85
2023-05-05T23:54:49.256Z,6.65
2023-05-05T23:57:16.116Z,4.90
2023-05-05T23:59:42.798Z,4.32
